sensor_id;sensor_type;location;lat;lon;timestamp;pressure;altitude;pressure_sealevel;temperature;humidity
74960;BME280;63518;49.572;1.106;2024-02-28T00:02:01;100258.78;;;2.73;100.00
74960;BME280;63518;49.572;1.106;2024-02-28T00:04:28;100262.59;;;2.91;100.00
74960;BME280;63518;49.572;1.106;2024-02-28T00:06:55;100256.84;;;2.80;100.00
74960;BME280;63518;49.572;1.106;2024-02-28T00:09:22;100263.94;;;2.81;100.00
74960;BME280;63518;49.572;1.106;2024-02-28T00:11:48;100266.75;;;2.93;100.00
74960;BME280;63518;49.572;1.106;2024-02-28T00:14:15;100266.44;;;2.83;100.00
74960;BME280;63518;49.572;1.106;2024-02-28T00:16:43;100264.25;;;2.92;100.00
74960;BME280;63518;49.572;1.106;2024-02-28T00:19:10;100267.19;;;2.72;100.00
74960;BME280;63518;49.572;1.106;2024-02-28T00:21:40;100257.59;;;2.44;100.00
74960;BME280;63518;49.572;1.106;2024-02-28T00:24:08;100267.53;;;2.57;100.00
74960;BME280;63518;49.572;1.106;2024-02-28T00:26:36;100262.94;;;2.58;100.00
74960;BME280;63518;49.572;1.106;2024-02-28T00:29:02;100258.53;;;2.57;100.00
74960;BME280;63518;49.572;1.106;2024-02-28T00:31:29;100261.13;;;2.70;100.00
74960;BME280;63518;49.572;1.106;2024-02-28T00:33:56;100263.25;;;2.68;100.00
74960;BME280;63518;49.572;1.106;2024-02-28T00:36:23;100262.19;;;2.87;100.00
74960;BME280;63518;49.572;1.106;2024-02-28T00:38:49;100259.50;;;2.62;100.00
74960;BME280;63518;49.572;1.106;2024-02-28T00:41:16;100258.72;;;2.98;100.00
74960;BME280;63518;49.572;1.106;2024-02-28T00:43:43;100269.78;;;2.85;100.00
74960;BME280;63518;49.572;1.106;2024-02-28T00:46:10;100272.34;;;2.80;100.00
74960;BME280;63518;49.572;1.106;2024-02-28T00:48:39;100268.41;;;2.94;100.00
74960;BME280;63518;49.572;1.106;2024-02-28T00:51:06;100254.78;;;3.13;100.00
74960;BME280;63518;49.572;1.106;2024-02-28T00:53:34;100264.69;;;3.25;100.00
74960;BME280;63518;49.572;1.106;2024-02-28T00:56:01;100252.44;;;2.98;100.00
74960;BME280;63518;49.572;1.106;2024-02-28T00:58:28;100240.09;;;2.95;100.00
74960;BME280;63518;49.572;1.106;2024-02-28T01:00:56;100254.19;;;2.92;100.00
74960;BME280;63518;49.572;1.106;2024-02-28T01:03:24;100247.75;;;3.05;100.00
74960;BME280;63518;49.572;1.106;2024-02-28T01:05:51;100256.91;;;3.29;100.00
74960;BME280;63518;49.572;1.106;2024-02-28T01:08:18;100253.41;;;3.22;100.00
74960;BME280;63518;49.572;1.106;2024-02-28T01:10:45;100249.31;;;3.31;100.00
74960;BME280;63518;49.572;1.106;2024-02-28T01:13:12;100252.66;;;3.15;100.00
74960;BME280;63518;49.572;1.106;2024-02-28T01:15:40;100249.69;;;3.16;100.00
74960;BME280;63518;49.572;1.106;2024-02-28T01:18:09;100254.03;;;3.24;100.00
74960;BME280;63518;49.572;1.106;2024-02-28T01:20:37;100243.88;;;3.13;100.00
74960;BME280;63518;49.572;1.106;2024-02-28T01:23:04;100247.06;;;3.28;100.00
74960;BME280;63518;49.572;1.106;2024-02-28T01:25:31;100248.56;;;3.24;100.00
74960;BME280;63518;49.572;1.106;2024-02-28T01:27:57;100247.44;;;3.13;100.00
74960;BME280;63518;49.572;1.106;2024-02-28T01:30:25;100240.44;;;3.17;100.00
74960;BME280;63518;49.572;1.106;2024-02-28T01:32:52;100244.25;;;3.16;100.00
74960;BME280;63518;49.572;1.106;2024-02-28T01:35:19;100221.91;;;3.07;100.00
74960;BME280;63518;49.572;1.106;2024-02-28T01:37:46;100237.41;;;3.25;100.00
74960;BME280;63518;49.572;1.106;2024-02-28T01:40:13;100237.75;;;2.99;100.00
74960;BME280;63518;49.572;1.106;2024-02-28T01:42:40;100253.66;;;3.20;100.00
74960;BME280;63518;49.572;1.106;2024-02-28T01:45:07;100249.00;;;3.39;100.00
74960;BME280;63518;49.572;1.106;2024-02-28T01:47:36;100248.72;;;3.47;100.00
74960;BME280;63518;49.572;1.106;2024-02-28T01:50:04;100261.78;;;3.27;100.00
74960;BME280;63518;49.572;1.106;2024-02-28T01:52:31;100257.13;;;3.27;100.00
74960;BME280;63518;49.572;1.106;2024-02-28T01:54:59;100259.56;;;3.35;100.00
74960;BME280;63518;49.572;1.106;2024-02-28T01:57:26;100266.44;;;3.38;100.00
74960;BME280;63518;49.572;1.106;2024-02-28T01:59:54;100248.72;;;3.29;100.00
74960;BME280;63518;49.572;1.106;2024-02-28T02:02:22;100257.75;;;3.48;100.00
74960;BME280;63518;49.572;1.106;2024-02-28T02:04:49;100263.91;;;3.43;100.00
74960;BME280;63518;49.572;1.106;2024-02-28T02:07:19;100258.25;;;3.38;100.00
74960;BME280;63518;49.572;1.106;2024-02-28T02:09:46;100268.66;;;3.48;100.00
74960;BME280;63518;49.572;1.106;2024-02-28T02:12:13;100265.69;;;3.49;100.00
74960;BME280;63518;49.572;1.106;2024-02-28T02:14:40;100248.34;;;3.44;100.00
74960;BME280;63518;49.572;1.106;2024-02-28T02:17:06;100262.28;;;3.54;100.00
74960;BME280;63518;49.572;1.106;2024-02-28T02:19:36;100269.56;;;3.42;100.00
74960;BME280;63518;49.572;1.106;2024-02-28T02:22:05;100262.59;;;3.46;100.00
74960;BME280;63518;49.572;1.106;2024-02-28T02:24:32;100256.06;;;3.47;100.00
74960;BME280;63518;49.572;1.106;2024-02-28T02:26:59;100255.75;;;3.55;100.00
74960;BME280;63518;49.572;1.106;2024-02-28T02:29:26;100237.75;;;3.65;100.00
74960;BME280;63518;49.572;1.106;2024-02-28T02:31:55;100242.00;;;3.13;100.00
74960;BME280;63518;49.572;1.106;2024-02-28T02:34:21;100235.53;;;3.07;100.00
74960;BME280;63518;49.572;1.106;2024-02-28T02:36:48;100233.63;;;3.26;100.00
74960;BME280;63518;49.572;1.106;2024-02-28T02:39:15;100244.16;;;3.41;100.00
74960;BME280;63518;49.572;1.106;2024-02-28T02:41:42;100238.44;;;3.13;100.00
74960;BME280;63518;49.572;1.106;2024-02-28T02:44:09;100239.50;;;3.12;100.00
74960;BME280;63518;49.572;1.106;2024-02-28T02:46:36;100241.59;;;3.28;100.00
74960;BME280;63518;49.572;1.106;2024-02-28T02:49:02;100248.84;;;3.34;100.00
74960;BME280;63518;49.572;1.106;2024-02-28T02:51:29;100240.22;;;3.37;100.00
74960;BME280;63518;49.572;1.106;2024-02-28T02:53:56;100253.69;;;3.50;100.00
74960;BME280;63518;49.572;1.106;2024-02-28T02:56:23;100242.56;;;3.52;100.00
74960;BME280;63518;49.572;1.106;2024-02-28T02:58:49;100240.88;;;3.69;100.00
74960;BME280;63518;49.572;1.106;2024-02-28T03:01:16;100235.84;;;3.66;100.00
74960;BME280;63518;49.572;1.106;2024-02-28T03:03:43;100236.44;;;3.38;100.00
74960;BME280;63518;49.572;1.106;2024-02-28T03:06:10;100230.31;;;3.43;100.00
74960;BME280;63518;49.572;1.106;2024-02-28T03:08:37;100234.31;;;3.58;100.00
74960;BME280;63518;49.572;1.106;2024-02-28T03:11:03;100237.31;;;3.69;100.00
74960;BME280;63518;49.572;1.106;2024-02-28T03:13:35;100229.31;;;3.37;100.00
74960;BME280;63518;49.572;1.106;2024-02-28T03:16:03;100219.84;;;3.70;100.00
74960;BME280;63518;49.572;1.106;2024-02-28T03:18:30;100225.38;;;3.93;100.00
74960;BME280;63518;49.572;1.106;2024-02-28T03:20:57;100237.06;;;4.12;100.00
74960;BME280;63518;49.572;1.106;2024-02-28T03:23:24;100235.38;;;3.99;100.00
74960;BME280;63518;49.572;1.106;2024-02-28T03:25:51;100228.50;;;4.08;100.00
74960;BME280;63518;49.572;1.106;2024-02-28T03:28:17;100235.53;;;4.28;100.00
74960;BME280;63518;49.572;1.106;2024-02-28T03:30:44;100234.72;;;4.39;100.00
74960;BME280;63518;49.572;1.106;2024-02-28T03:33:11;100238.66;;;4.31;100.00
74960;BME280;63518;49.572;1.106;2024-02-28T03:35:38;100234.25;;;3.88;100.00
74960;BME280;63518;49.572;1.106;2024-02-28T03:38:05;100230.84;;;4.05;100.00
74960;BME280;63518;49.572;1.106;2024-02-28T03:40:32;100236.44;;;3.98;100.00
74960;BME280;63518;49.572;1.106;2024-02-28T03:42:59;100239.78;;;4.00;100.00
74960;BME280;63518;49.572;1.106;2024-02-28T03:45:29;100237.72;;;3.84;100.00
74960;BME280;63518;49.572;1.106;2024-02-28T03:47:56;100236.78;;;3.90;100.00
74960;BME280;63518;49.572;1.106;2024-02-28T03:50:23;100234.75;;;3.85;100.00
74960;BME280;63518;49.572;1.106;2024-02-28T03:52:50;100237.75;;;3.65;100.00
74960;BME280;63518;49.572;1.106;2024-02-28T03:55:17;100246.16;;;3.94;100.00
74960;BME280;63518;49.572;1.106;2024-02-28T03:57:47;100230.44;;;3.78;100.00
74960;BME280;63518;49.572;1.106;2024-02-28T04:00:15;100227.44;;;3.68;100.00
74960;BME280;63518;49.572;1.106;2024-02-28T04:02:42;100225.22;;;3.76;100.00
74960;BME280;63518;49.572;1.106;2024-02-28T04:05:08;100229.56;;;3.65;100.00
74960;BME280;63518;49.572;1.106;2024-02-28T04:07:35;100222.53;;;3.58;100.00
74960;BME280;63518;49.572;1.106;2024-02-28T04:10:02;100224.63;;;3.44;100.00
74960;BME280;63518;49.572;1.106;2024-02-28T04:12:31;100218.69;;;3.47;100.00
74960;BME280;63518;49.572;1.106;2024-02-28T04:14:59;100214.97;;;3.60;100.00
74960;BME280;63518;49.572;1.106;2024-02-28T04:17:26;100237.03;;;3.58;100.00
74960;BME280;63518;49.572;1.106;2024-02-28T04:19:53;100231.38;;;3.72;100.00
74960;BME280;63518;49.572;1.106;2024-02-28T04:22:20;100235.63;;;3.68;100.00
74960;BME280;63518;49.572;1.106;2024-02-28T04:24:46;100233.06;;;3.43;100.00
74960;BME280;63518;49.572;1.106;2024-02-28T04:27:13;100236.88;;;3.53;100.00
74960;BME280;63518;49.572;1.106;2024-02-28T04:29:40;100222.53;;;3.39;100.00
74960;BME280;63518;49.572;1.106;2024-02-28T04:32:07;100224.16;;;3.29;100.00
74960;BME280;63518;49.572;1.106;2024-02-28T04:34:36;100224.66;;;3.56;100.00
74960;BME280;63518;49.572;1.106;2024-02-28T04:37:03;100228.31;;;3.50;100.00
74960;BME280;63518;49.572;1.106;2024-02-28T04:39:30;100226.28;;;3.27;100.00
74960;BME280;63518;49.572;1.106;2024-02-28T04:41:57;100222.19;;;3.18;100.00
74960;BME280;63518;49.572;1.106;2024-02-28T04:44:23;100226.06;;;3.28;100.00
74960;BME280;63518;49.572;1.106;2024-02-28T04:46:50;100238.25;;;3.26;100.00
74960;BME280;63518;49.572;1.106;2024-02-28T04:49:17;100238.13;;;2.84;100.00
74960;BME280;63518;49.572;1.106;2024-02-28T04:51:44;100245.09;;;2.98;100.00
74960;BME280;63518;49.572;1.106;2024-02-28T04:54:11;100234.72;;;3.07;100.00
74960;BME280;63518;49.572;1.106;2024-02-28T04:56:41;100234.91;;;3.24;100.00
74960;BME280;63518;49.572;1.106;2024-02-28T04:59:11;100231.91;;;3.14;100.00
74960;BME280;63518;49.572;1.106;2024-02-28T05:01:39;100240.66;;;3.34;100.00
74960;BME280;63518;49.572;1.106;2024-02-28T05:04:08;100246.69;;;3.43;100.00
74960;BME280;63518;49.572;1.106;2024-02-28T05:06:35;100253.69;;;3.50;100.00
74960;BME280;63518;49.572;1.106;2024-02-28T05:09:06;100240.81;;;3.39;100.00
74960;BME280;63518;49.572;1.106;2024-02-28T05:11:33;100232.19;;;3.42;100.00
74960;BME280;63518;49.572;1.106;2024-02-28T05:14:00;100244.09;;;3.78;100.00
74960;BME280;63518;49.572;1.106;2024-02-28T05:16:27;100253.94;;;3.79;100.00
74960;BME280;63518;49.572;1.106;2024-02-28T05:18:53;100250.97;;;3.69;100.00
74960;BME280;63518;49.572;1.106;2024-02-28T05:21:20;100244.78;;;3.73;100.00
74960;BME280;63518;49.572;1.106;2024-02-28T05:23:47;100261.88;;;3.99;100.00
74960;BME280;63518;49.572;1.106;2024-02-28T05:26:14;100253.59;;;3.75;100.00
74960;BME280;63518;49.572;1.106;2024-02-28T05:28:40;100252.19;;;3.54;100.00
74960;BME280;63518;49.572;1.106;2024-02-28T05:31:21;100260.91;;;4.05;100.00
74960;BME280;63518;49.572;1.106;2024-02-28T05:33:51;100255.59;;;4.10;100.00
74960;BME280;63518;49.572;1.106;2024-02-28T05:36:19;100258.91;;;4.12;100.00
74960;BME280;63518;49.572;1.106;2024-02-28T05:38:46;100262.47;;;4.12;100.00
74960;BME280;63518;49.572;1.106;2024-02-28T05:41:13;100253.59;;;4.29;100.00
74960;BME280;63518;49.572;1.106;2024-02-28T05:43:40;100251.63;;;3.94;100.00
74960;BME280;63518;49.572;1.106;2024-02-28T05:46:07;100264.38;;;4.12;100.00
74960;BME280;63518;49.572;1.106;2024-02-28T05:48:34;100252.94;;;4.03;100.00
74960;BME280;63518;49.572;1.106;2024-02-28T05:51:01;100260.78;;;4.00;100.00
74960;BME280;63518;49.572;1.106;2024-02-28T05:53:29;100254.50;;;3.99;100.00
74960;BME280;63518;49.572;1.106;2024-02-28T05:55:58;100257.09;;;3.94;100.00
74960;BME280;63518;49.572;1.106;2024-02-28T05:58:25;100265.28;;;3.94;100.00
74960;BME280;63518;49.572;1.106;2024-02-28T06:00:52;100257.81;;;4.01;100.00
74960;BME280;63518;49.572;1.106;2024-02-28T06:03:19;100244.84;;;3.97;100.00
74960;BME280;63518;49.572;1.106;2024-02-28T06:05:46;100252.16;;;4.14;100.00
74960;BME280;63518;49.572;1.106;2024-02-28T06:08:16;100257.78;;;4.31;100.00
74960;BME280;63518;49.572;1.106;2024-02-28T06:10:42;100260.41;;;4.38;100.00
74960;BME280;63518;49.572;1.106;2024-02-28T06:13:09;100249.94;;;4.46;100.00
74960;BME280;63518;49.572;1.106;2024-02-28T06:15:36;100247.09;;;4.30;100.00
74960;BME280;63518;49.572;1.106;2024-02-28T06:18:03;100245.75;;;4.44;100.00
74960;BME280;63518;49.572;1.106;2024-02-28T06:20:30;100249.94;;;4.46;100.00
74960;BME280;63518;49.572;1.106;2024-02-28T06:22:57;100245.75;;;4.44;100.00
74960;BME280;63518;49.572;1.106;2024-02-28T06:25:28;100241.63;;;4.41;100.00
74960;BME280;63518;49.572;1.106;2024-02-28T06:27:55;100243.72;;;4.28;100.00
74960;BME280;63518;49.572;1.106;2024-02-28T06:30:22;100246.00;;;4.31;100.00
74960;BME280;63518;49.572;1.106;2024-02-28T06:32:49;100236.25;;;4.35;100.00
74960;BME280;63518;49.572;1.106;2024-02-28T06:35:15;100253.75;;;4.45;100.00
74960;BME280;63518;49.572;1.106;2024-02-28T06:37:43;100254.94;;;4.49;100.00
74960;BME280;63518;49.572;1.106;2024-02-28T06:40:16;100245.66;;;4.50;100.00
74960;BME280;63518;49.572;1.106;2024-02-28T06:42:43;100250.28;;;4.73;100.00
74960;BME280;63518;49.572;1.106;2024-02-28T06:45:09;100237.69;;;4.49;100.00
74960;BME280;63518;49.572;1.106;2024-02-28T06:47:36;100248.88;;;4.59;100.00
74960;BME280;63518;49.572;1.106;2024-02-28T06:50:04;100247.91;;;4.65;100.00
74960;BME280;63518;49.572;1.106;2024-02-28T06:52:31;100249.22;;;4.74;100.00
74960;BME280;63518;49.572;1.106;2024-02-28T06:54:58;100262.19;;;4.79;100.00
74960;BME280;63518;49.572;1.106;2024-02-28T06:57:26;100265.50;;;5.04;100.00
74960;BME280;63518;49.572;1.106;2024-02-28T06:59:53;100244.84;;;4.85;100.00
74960;BME280;63518;49.572;1.106;2024-02-28T07:02:20;100254.19;;;5.13;100.00
74960;BME280;63518;49.572;1.106;2024-02-28T07:04:46;100260.81;;;5.28;100.00
74960;BME280;63518;49.572;1.106;2024-02-28T07:07:13;100264.22;;;4.95;100.00
74960;BME280;63518;49.572;1.106;2024-02-28T07:09:40;100271.69;;;4.76;100.00
74960;BME280;63518;49.572;1.106;2024-02-28T07:12:07;100262.53;;;4.83;100.00
74960;BME280;63518;49.572;1.106;2024-02-28T07:14:34;100270.38;;;4.91;100.00
74960;BME280;63518;49.572;1.106;2024-02-28T07:17:00;100273.38;;;4.77;100.00
74960;BME280;63518;49.572;1.106;2024-02-28T07:19:27;100274.91;;;4.73;100.00
74960;BME280;63518;49.572;1.106;2024-02-28T07:21:54;100267.19;;;4.70;100.00
74960;BME280;63518;49.572;1.106;2024-02-28T07:24:21;100265.75;;;4.56;100.00
74960;BME280;63518;49.572;1.106;2024-02-28T07:26:47;100274.06;;;4.38;100.00
74960;BME280;63518;49.572;1.106;2024-02-28T07:29:15;100280.38;;;4.50;100.00
74960;BME280;63518;49.572;1.106;2024-02-28T07:31:42;100293.69;;;4.46;100.00
74960;BME280;63518;49.572;1.106;2024-02-28T07:34:09;100297.53;;;4.69;100.00
74960;BME280;63518;49.572;1.106;2024-02-28T07:36:36;100299.41;;;4.57;100.00
74960;BME280;63518;49.572;1.106;2024-02-28T07:39:04;100303.09;;;4.74;100.00
74960;BME280;63518;49.572;1.106;2024-02-28T07:41:31;100297.25;;;4.47;100.00
74960;BME280;63518;49.572;1.106;2024-02-28T07:43:58;100305.38;;;4.77;100.00
74960;BME280;63518;49.572;1.106;2024-02-28T07:46:25;100292.88;;;4.81;100.00
74960;BME280;63518;49.572;1.106;2024-02-28T07:48:52;100300.25;;;5.04;100.00
74960;BME280;63518;49.572;1.106;2024-02-28T07:51:19;100308.34;;;4.87;100.00
74960;BME280;63518;49.572;1.106;2024-02-28T07:53:45;100302.50;;;4.84;100.00
74960;BME280;63518;49.572;1.106;2024-02-28T07:56:20;100302.00;;;5.22;100.00
74960;BME280;63518;49.572;1.106;2024-02-28T07:58:47;100296.06;;;5.13;100.00
74960;BME280;63518;49.572;1.106;2024-02-28T08:01:14;100301.28;;;5.15;100.00
74960;BME280;63518;49.572;1.106;2024-02-28T08:03:43;100297.00;;;5.07;100.00
74960;BME280;63518;49.572;1.106;2024-02-28T08:06:10;100300.00;;;4.82;100.00
74960;BME280;63518;49.572;1.106;2024-02-28T08:08:37;100292.03;;;5.04;100.00
74960;BME280;63518;49.572;1.106;2024-02-28T08:11:03;100300.59;;;4.84;100.00
74960;BME280;63518;49.572;1.106;2024-02-28T08:13:31;100296.31;;;5.00;100.00
74960;BME280;63518;49.572;1.106;2024-02-28T08:15:59;100308.09;;;4.77;100.00
74960;BME280;63518;49.572;1.106;2024-02-28T08:18:26;100293.22;;;4.73;100.00
74960;BME280;63518;49.572;1.106;2024-02-28T08:20:54;100300.13;;;4.99;99.87
74960;BME280;63518;49.572;1.106;2024-02-28T08:23:24;100292.41;;;4.72;99.50
74960;BME280;63518;49.572;1.106;2024-02-28T08:25:52;100298.59;;;4.80;95.98
74960;BME280;63518;49.572;1.106;2024-02-28T08:28:19;100302.13;;;4.92;94.46
74960;BME280;63518;49.572;1.106;2024-02-28T08:30:48;100298.22;;;4.88;94.91
74960;BME280;63518;49.572;1.106;2024-02-28T08:33:15;100297.75;;;5.02;92.91
74960;BME280;63518;49.572;1.106;2024-02-28T08:35:44;100301.78;;;4.88;92.13
74960;BME280;63518;49.572;1.106;2024-02-28T08:38:11;100307.09;;;5.42;90.92
74960;BME280;63518;49.572;1.106;2024-02-28T08:40:39;100304.84;;;5.15;93.42
74960;BME280;63518;49.572;1.106;2024-02-28T08:43:06;100302.00;;;5.22;90.97
74960;BME280;63518;49.572;1.106;2024-02-28T08:45:33;100310.59;;;5.02;91.87
74960;BME280;63518;49.572;1.106;2024-02-28T08:48:04;100286.56;;;5.04;90.30
74960;BME280;63518;49.572;1.106;2024-02-28T08:50:31;100290.66;;;5.42;88.58
74960;BME280;63518;49.572;1.106;2024-02-28T08:52:58;100290.78;;;5.35;89.40
74960;BME280;63518;49.572;1.106;2024-02-28T08:55:24;100288.84;;;5.47;88.46
74960;BME280;63518;49.572;1.106;2024-02-28T08:57:51;100304.44;;;5.99;89.72
74960;BME280;63518;49.572;1.106;2024-02-28T09:00:18;100303.00;;;5.56;92.43
74960;BME280;63518;49.572;1.106;2024-02-28T09:02:45;100306.09;;;5.59;92.13
74960;BME280;63518;49.572;1.106;2024-02-28T09:05:12;100294.81;;;5.56;92.81
74960;BME280;63518;49.572;1.106;2024-02-28T09:07:39;100287.88;;;5.53;92.33
74960;BME280;63518;49.572;1.106;2024-02-28T09:10:06;100286.97;;;5.76;90.53
74960;BME280;63518;49.572;1.106;2024-02-28T09:12:33;100299.25;;;5.74;91.46
74960;BME280;63518;49.572;1.106;2024-02-28T09:15:00;100297.53;;;5.84;92.09
74960;BME280;63518;49.572;1.106;2024-02-28T09:17:27;100308.50;;;5.84;91.40
74960;BME280;63518;49.572;1.106;2024-02-28T09:19:53;100298.06;;;5.29;92.20
74960;BME280;63518;49.572;1.106;2024-02-28T09:22:21;100304.47;;;5.35;89.00
74960;BME280;63518;49.572;1.106;2024-02-28T09:24:50;100298.81;;;5.65;84.35
74960;BME280;63518;49.572;1.106;2024-02-28T09:27:17;100307.44;;;5.45;83.75
74960;BME280;63518;49.572;1.106;2024-02-28T09:29:45;100302.72;;;5.69;83.65
74960;BME280;63518;49.572;1.106;2024-02-28T09:32:11;100305.38;;;5.64;81.73
74960;BME280;63518;49.572;1.106;2024-02-28T09:34:38;100302.72;;;5.69;81.43
74960;BME280;63518;49.572;1.106;2024-02-28T09:37:05;100302.47;;;5.71;81.34
74960;BME280;63518;49.572;1.106;2024-02-28T09:39:32;100306.53;;;5.68;80.35
74960;BME280;63518;49.572;1.106;2024-02-28T09:41:59;100302.63;;;5.64;80.52
74960;BME280;63518;49.572;1.106;2024-02-28T09:44:26;100307.25;;;5.63;80.83
74960;BME280;63518;49.572;1.106;2024-02-28T09:46:53;100306.44;;;6.03;79.19
74960;BME280;63518;49.572;1.106;2024-02-28T09:49:20;100292.19;;;5.89;81.06
74960;BME280;63518;49.572;1.106;2024-02-28T09:51:49;100302.50;;;5.99;80.76
74960;BME280;63518;49.572;1.106;2024-02-28T09:54:19;100299.94;;;5.81;81.30
74960;BME280;63518;49.572;1.106;2024-02-28T09:56:47;100301.56;;;5.94;80.22
74960;BME280;63518;49.572;1.106;2024-02-28T09:59:18;100301.00;;;5.92;81.76
74960;BME280;63518;49.572;1.106;2024-02-28T10:01:57;100300.72;;;6.05;80.34
74960;BME280;63518;49.572;1.106;2024-02-28T10:04:27;100307.81;;;6.34;79.57
74960;BME280;63518;49.572;1.106;2024-02-28T10:06:56;100306.97;;;6.34;81.07
74960;BME280;63518;49.572;1.106;2024-02-28T10:09:24;100299.66;;;6.23;82.53
74960;BME280;63518;49.572;1.106;2024-02-28T10:11:51;100300.66;;;5.88;84.34
74960;BME280;63518;49.572;1.106;2024-02-28T10:14:18;100288.72;;;5.94;81.55
74960;BME280;63518;49.572;1.106;2024-02-28T10:16:46;100296.31;;;6.04;81.32
74960;BME280;63518;49.572;1.106;2024-02-28T10:19:13;100291.81;;;5.98;80.24
74960;BME280;63518;49.572;1.106;2024-02-28T10:21:41;100294.03;;;6.01;80.69
74960;BME280;63518;49.572;1.106;2024-02-28T10:24:11;100290.03;;;5.92;79.03
74960;BME280;63518;49.572;1.106;2024-02-28T10:26:47;100303.72;;;6.20;78.90
74960;BME280;63518;49.572;1.106;2024-02-28T10:29:24;100309.13;;;6.15;78.67
74960;BME280;63518;49.572;1.106;2024-02-28T10:31:52;100305.94;;;6.52;77.66
74960;BME280;63518;49.572;1.106;2024-02-28T10:34:19;100308.25;;;6.60;77.50
74960;BME280;63518;49.572;1.106;2024-02-28T10:36:46;100308.50;;;6.75;78.77
74960;BME280;63518;49.572;1.106;2024-02-28T10:39:14;100306.25;;;6.72;80.46
74960;BME280;63518;49.572;1.106;2024-02-28T10:41:42;100302.09;;;6.69;80.89
74960;BME280;63518;49.572;1.106;2024-02-28T10:44:14;100307.91;;;6.73;81.23
74960;BME280;63518;49.572;1.106;2024-02-28T10:46:44;100314.38;;;6.50;83.27
74960;BME280;63518;49.572;1.106;2024-02-28T10:49:13;100305.06;;;7.01;81.33
74960;BME280;63518;49.572;1.106;2024-02-28T10:51:45;100313.13;;;7.47;81.13
74960;BME280;63518;49.572;1.106;2024-02-28T10:54:15;100321.66;;;7.50;85.57
74960;BME280;63518;49.572;1.106;2024-02-28T10:56:43;100322.03;;;7.37;87.13
74960;BME280;63518;49.572;1.106;2024-02-28T10:59:11;100318.28;;;7.05;88.52
74960;BME280;63518;49.572;1.106;2024-02-28T11:01:43;100326.22;;;6.84;89.04
74960;BME280;63518;49.572;1.106;2024-02-28T11:04:14;100327.09;;;7.45;87.31
74960;BME280;63518;49.572;1.106;2024-02-28T11:06:54;100329.94;;;7.72;91.11
74960;BME280;63518;49.572;1.106;2024-02-28T11:09:24;100308.53;;;7.14;93.66
74960;BME280;63518;49.572;1.106;2024-02-28T11:11:54;100319.25;;;7.54;92.93
74960;BME280;63518;49.572;1.106;2024-02-28T11:14:25;100326.13;;;7.35;96.90
74960;BME280;63518;49.572;1.106;2024-02-28T11:17:04;100329.00;;;7.45;96.33
74960;BME280;63518;49.572;1.106;2024-02-28T11:19:33;100332.50;;;7.79;97.16
74960;BME280;63518;49.572;1.106;2024-02-28T11:22:02;100332.53;;;7.40;100.00
74960;BME280;63518;49.572;1.106;2024-02-28T11:24:35;100335.44;;;7.34;100.00
74960;BME280;63518;49.572;1.106;2024-02-28T11:27:04;100341.16;;;8.15;100.00
74960;BME280;63518;49.572;1.106;2024-02-28T11:29:32;100339.69;;;8.07;100.00
74960;BME280;63518;49.572;1.106;2024-02-28T11:31:59;100335.31;;;8.33;100.00
74960;BME280;63518;49.572;1.106;2024-02-28T11:34:26;100342.31;;;8.19;100.00
74960;BME280;63518;49.572;1.106;2024-02-28T11:36:53;100337.75;;;8.07;100.00
74960;BME280;63518;49.572;1.106;2024-02-28T11:39:23;100329.75;;;8.28;100.00
74960;BME280;63518;49.572;1.106;2024-02-28T11:41:52;100337.63;;;8.46;100.00
74960;BME280;63518;49.572;1.106;2024-02-28T11:44:20;100329.22;;;8.31;100.00
74960;BME280;63518;49.572;1.106;2024-02-28T11:46:48;100325.38;;;8.32;100.00
74960;BME280;63518;49.572;1.106;2024-02-28T11:49:16;100318.81;;;8.33;100.00
74960;BME280;63518;49.572;1.106;2024-02-28T11:51:44;100308.69;;;8.11;100.00
74960;BME280;63518;49.572;1.106;2024-02-28T11:54:11;100314.94;;;8.07;100.00
74960;BME280;63518;49.572;1.106;2024-02-28T11:56:43;100298.16;;;8.08;100.00
74960;BME280;63518;49.572;1.106;2024-02-28T11:59:11;100298.59;;;8.22;100.00
74960;BME280;63518;49.572;1.106;2024-02-28T12:01:41;100297.25;;;7.98;100.00
74960;BME280;63518;49.572;1.106;2024-02-28T12:04:10;100290.53;;;8.10;100.00
74960;BME280;63518;49.572;1.106;2024-02-28T12:06:38;100285.13;;;8.53;100.00
74960;BME280;63518;49.572;1.106;2024-02-28T12:09:11;100280.66;;;8.15;100.00
74960;BME280;63518;49.572;1.106;2024-02-28T12:11:53;100287.84;;;8.21;100.00
74960;BME280;63518;49.572;1.106;2024-02-28T12:14:20;100281.53;;;7.93;100.00
74960;BME280;63518;49.572;1.106;2024-02-28T12:16:48;100282.50;;;8.36;100.00
74960;BME280;63518;49.572;1.106;2024-02-28T12:19:15;100273.00;;;8.17;100.00
74960;BME280;63518;49.572;1.106;2024-02-28T12:21:43;100263.50;;;8.34;100.00
74960;BME280;63518;49.572;1.106;2024-02-28T12:24:11;100267.31;;;8.28;100.00
74960;BME280;63518;49.572;1.106;2024-02-28T12:26:39;100257.94;;;7.97;100.00
74960;BME280;63518;49.572;1.106;2024-02-28T12:29:07;100266.44;;;7.96;100.00
74960;BME280;63518;49.572;1.106;2024-02-28T12:31:34;100264.09;;;7.82;100.00
74960;BME280;63518;49.572;1.106;2024-02-28T12:34:01;100266.81;;;8.36;100.00
74960;BME280;63518;49.572;1.106;2024-02-28T12:36:31;100269.75;;;8.25;100.00
74960;BME280;63518;49.572;1.106;2024-02-28T12:38:59;100259.53;;;8.20;100.00
74960;BME280;63518;49.572;1.106;2024-02-28T12:41:27;100265.22;;;8.78;100.00
74960;BME280;63518;49.572;1.106;2024-02-28T12:43:55;100265.41;;;8.02;100.00
74960;BME280;63518;49.572;1.106;2024-02-28T12:46:22;100260.84;;;7.86;100.00
74960;BME280;63518;49.572;1.106;2024-02-28T12:48:49;100261.41;;;7.88;100.00
74960;BME280;63518;49.572;1.106;2024-02-28T12:51:38;100252.03;;;8.10;100.00
74960;BME280;63518;49.572;1.106;2024-02-28T12:54:06;100241.25;;;7.77;100.00
74960;BME280;63518;49.572;1.106;2024-02-28T12:56:38;100236.84;;;8.08;100.00